createdAt,value
2016-06-12T00:00:33.858Z,996.82
2016-06-12T00:01:33.892Z,996.85
2016-06-12T00:02:34.285Z,996.85
2016-06-12T00:03:33.976Z,996.88
2016-06-12T00:04:34.010Z,996.85
2016-06-12T00:05:34.060Z,996.84
2016-06-12T00:06:34.095Z,996.87
2016-06-12T00:07:34.286Z,996.87
2016-06-12T00:08:34.204Z,996.87
2016-06-12T00:09:34.278Z,996.88
2016-06-12T00:10:34.522Z,996.88
2016-06-12T00:11:34.438Z,996.89
2016-06-12T00:12:34.510Z,996.87
2016-06-12T00:13:34.566Z,996.83
2016-06-12T00:14:34.629Z,996.87
2016-06-12T00:15:34.678Z,996.84
2016-06-12T00:16:34.726Z,996.83
2016-06-12T00:17:34.790Z,996.84
2016-06-12T00:18:34.847Z,996.81
2016-06-12T00:19:34.887Z,996.79
2016-06-12T00:20:35.707Z,996.76
2016-06-12T00:21:34.981Z,996.76
2016-06-12T00:22:35.020Z,996.76
2016-06-12T00:23:35.057Z,996.77
2016-06-12T00:24:35.109Z,996.71
2016-06-12T00:25:35.145Z,996.73
2016-06-12T00:26:35.182Z,996.71
2016-06-12T00:27:35.234Z,996.75
2016-06-12T00:28:35.269Z,996.73
2016-06-12T00:29:35.304Z,996.73
2016-06-12T00:30:35.354Z,996.73
2016-06-12T00:31:35.717Z,996.75
2016-06-12T00:32:35.423Z,996.71
2016-06-12T00:33:35.474Z,996.73
2016-06-12T00:34:35.602Z,996.69
2016-06-12T00:35:35.777Z,996.67
2016-06-12T00:36:35.594Z,996.67
2016-06-12T00:37:35.628Z,996.66
2016-06-12T00:38:35.678Z,996.67
2016-06-12T00:39:35.713Z,996.67
2016-06-12T00:40:35.746Z,996.68
2016-06-12T00:41:35.797Z,996.66
2016-06-12T00:42:35.830Z,996.65
2016-06-12T00:43:35.866Z,996.67
2016-06-12T00:44:35.916Z,996.67
2016-06-12T00:45:35.950Z,996.63
2016-06-12T00:46:36.000Z,996.64
2016-06-12T00:47:36.034Z,996.63
2016-06-12T00:48:36.068Z,996.63
2016-06-12T00:49:36.119Z,996.62
2016-06-12T00:50:36.184Z,996.62
2016-06-12T00:51:36.188Z,996.61
2016-06-12T00:52:36.236Z,996.58
2016-06-12T00:53:36.303Z,996.59
2016-06-12T00:54:36.306Z,996.63
2016-06-12T00:55:36.355Z,996.62
2016-06-12T00:56:36.390Z,996.62
2016-06-12T00:57:36.424Z,996.61
2016-06-12T00:58:36.474Z,996.66
2016-06-12T00:59:36.508Z,996.64
2016-06-12T01:00:36.543Z,996.65
2016-06-12T01:01:36.593Z,996.64
2016-06-12T01:02:36.627Z,996.64
2016-06-12T01:03:36.678Z,996.65
2016-06-12T01:04:36.727Z,996.65
2016-06-12T01:05:36.839Z,996.56
2016-06-12T01:06:36.795Z,996.58
2016-06-12T01:07:36.830Z,996.59
2016-06-12T01:08:36.864Z,996.52
2016-06-12T01:09:36.914Z,996.56
2016-06-12T01:10:36.949Z,996.53
2016-06-12T01:11:36.982Z,996.52
2016-06-12T01:12:37.033Z,996.54
2016-06-12T01:13:37.067Z,996.52
2016-06-12T01:14:37.117Z,996.52
2016-06-12T01:15:37.152Z,996.53
2016-06-12T01:16:37.185Z,996.5
2016-06-12T01:17:37.221Z,996.53
2016-06-12T01:18:37.270Z,996.5
2016-06-12T01:19:37.304Z,996.51
2016-06-12T01:20:37.463Z,996.49
2016-06-12T01:21:37.388Z,996.49
2016-06-12T01:22:37.517Z,996.47
2016-06-12T01:23:37.473Z,996.5
2016-06-12T01:24:37.507Z,996.48
2016-06-12T01:25:37.542Z,996.48
2016-06-12T01:26:37.607Z,996.45
2016-06-12T01:27:37.626Z,996.46
2016-06-12T01:28:37.660Z,996.45
2016-06-12T01:29:37.725Z,996.44
2016-06-12T01:30:37.745Z,996.43
2016-06-12T01:31:37.778Z,996.41
2016-06-12T01:32:37.828Z,996.41
2016-06-12T01:33:37.895Z,996.42
2016-06-12T01:34:37.898Z,996.42
2016-06-12T01:35:38.479Z,996.37
2016-06-12T01:36:37.982Z,996.35
2016-06-12T01:37:38.032Z,996.36
2016-06-12T01:38:38.066Z,996.32
2016-06-12T01:39:38.100Z,996.29
2016-06-12T01:40:38.151Z,996.32
2016-06-12T01:41:38.184Z,996.3
2016-06-12T01:42:38.219Z,996.32
2016-06-12T01:43:38.268Z,996.33
2016-06-12T01:44:38.319Z,996.31
2016-06-12T01:45:38.354Z,996.29
2016-06-12T01:46:38.371Z,996.32
2016-06-12T01:47:38.422Z,996.29
2016-06-12T01:48:38.472Z,996.28
2016-06-12T01:49:38.506Z,996.25
2016-06-12T01:50:38.540Z,996.28
2016-06-12T01:51:38.575Z,996.27
2016-06-12T01:52:38.625Z,996.24
2016-06-12T01:53:38.659Z,996.22
2016-06-12T01:54:38.694Z,996.22
2016-06-12T01:55:38.743Z,996.21
2016-06-12T01:56:38.777Z,996.24
2016-06-12T01:57:38.812Z,996.19
2016-06-12T01:58:38.861Z,996.2
2016-06-12T01:59:38.897Z,996.22
2016-06-12T02:00:38.931Z,996.2
2016-06-12T02:01:38.981Z,996.21
2016-06-12T02:02:39.015Z,996.23
2016-06-12T02:03:39.049Z,996.23
2016-06-12T02:04:39.099Z,996.16
2016-06-12T02:05:39.133Z,996.15
2016-06-12T02:06:39.168Z,996.17
2016-06-12T02:07:39.217Z,996.18
2016-06-12T02:08:39.253Z,996.18
2016-06-12T02:09:39.287Z,996.19
2016-06-12T02:10:39.337Z,996.22
2016-06-12T02:11:39.371Z,996.19
2016-06-12T02:12:39.437Z,996.2
2016-06-12T02:13:39.471Z,996.18
2016-06-12T02:14:39.489Z,996.19
2016-06-12T02:15:39.524Z,996.2
2016-06-12T02:16:39.574Z,996.18
2016-06-12T02:17:39.608Z,996.23
2016-06-12T02:18:39.658Z,996.22
2016-06-12T02:19:39.692Z,996.2
2016-06-12T02:20:39.726Z,996.19
2016-06-12T02:21:39.777Z,996.17
2016-06-12T02:22:39.810Z,996.2
2016-06-12T02:23:39.845Z,996.18
2016-06-12T02:24:39.910Z,996.19
2016-06-12T02:25:39.930Z,996.2
2016-06-12T02:26:39.964Z,996.16
2016-06-12T02:27:39.997Z,996.21
2016-06-12T02:28:40.048Z,996.14
2016-06-12T02:29:40.082Z,996.19
2016-06-12T02:30:40.117Z,996.19
2016-06-12T02:31:40.166Z,996.17
2016-06-12T02:32:40.202Z,996.18
2016-06-12T02:33:40.235Z,996.15
2016-06-12T02:34:40.285Z,996.17
2016-06-12T02:35:40.319Z,996.18
2016-06-12T02:36:40.369Z,996.15
2016-06-12T02:37:40.404Z,996.22
2016-06-12T02:38:40.438Z,996.2
2016-06-12T02:39:40.473Z,996.21
2016-06-12T02:40:40.522Z,996.2
2016-06-12T02:41:40.557Z,996.24
2016-06-12T02:42:40.607Z,996.23
2016-06-12T02:43:40.641Z,996.24
2016-06-12T02:44:40.675Z,996.27
2016-06-12T02:45:40.709Z,996.28
2016-06-12T02:46:40.759Z,996.28
2016-06-12T02:47:40.794Z,996.34
2016-06-12T02:48:40.828Z,996.34
2016-06-12T02:49:40.878Z,996.35
2016-06-12T02:50:40.912Z,996.32
2016-06-12T02:51:40.947Z,996.35
2016-06-12T02:52:40.996Z,996.35
2016-06-12T02:53:41.030Z,996.35
2016-06-12T02:54:41.066Z,996.37
2016-06-12T02:55:41.115Z,996.35
2016-06-12T02:56:41.149Z,996.35
2016-06-12T02:57:41.184Z,996.35
2016-06-12T02:58:41.234Z,996.35
2016-06-12T02:59:41.268Z,996.32
2016-06-12T03:00:41.318Z,996.35
2016-06-12T03:01:41.337Z,996.29
2016-06-12T03:02:41.386Z,996.33
2016-06-12T03:03:41.421Z,996.33
2016-06-12T03:04:41.472Z,996.3
2016-06-12T03:05:41.505Z,996.28
2016-06-12T03:06:41.539Z,996.32
2016-06-12T03:07:41.606Z,996.33
2016-06-12T03:08:41.624Z,996.31
2016-06-12T03:09:41.657Z,996.3
2016-06-12T03:10:41.693Z,996.29
2016-06-12T03:11:41.743Z,996.32
2016-06-12T03:12:41.777Z,996.36
2016-06-12T03:13:41.811Z,996.32
2016-06-12T03:14:41.861Z,996.32
2016-06-12T03:15:41.896Z,996.37
2016-06-12T03:16:41.929Z,996.35
2016-06-12T03:17:41.979Z,996.34
2016-06-12T03:18:42.014Z,996.38
2016-06-12T03:19:42.048Z,996.31
2016-06-12T03:20:42.099Z,996.32
2016-06-12T03:21:42.132Z,996.32
2016-06-12T03:22:42.166Z,996.34
2016-06-12T03:23:42.217Z,996.32
2016-06-12T03:24:42.251Z,996.33
2016-06-12T03:25:42.332Z,996.31
2016-06-12T03:26:42.335Z,996.31
2016-06-12T03:27:42.370Z,996.32
2016-06-12T03:28:42.404Z,996.33
2016-06-12T03:29:42.455Z,996.3
2016-06-12T03:30:42.488Z,996.29
2016-06-12T03:31:42.522Z,996.28
2016-06-12T03:32:42.573Z,996.28
2016-06-12T03:33:42.607Z,996.26
2016-06-12T03:34:42.642Z,996.28
2016-06-12T03:35:42.691Z,996.29
2016-06-12T03:36:42.741Z,996.23
2016-06-12T03:37:42.760Z,996.27
2016-06-12T03:38:42.810Z,996.29
2016-06-12T03:39:42.844Z,996.28
2016-06-12T03:40:42.878Z,996.28
2016-06-12T03:41:42.929Z,996.27
2016-06-12T03:42:42.963Z,996.26
2016-06-12T03:43:43.012Z,996.28
2016-06-12T03:44:43.047Z,996.28
2016-06-12T03:45:43.081Z,996.26
2016-06-12T03:46:43.132Z,996.28
2016-06-12T03:47:43.197Z,996.28
2016-06-12T03:48:43.199Z,996.31
2016-06-12T03:49:43.235Z,996.31
2016-06-12T03:50:43.284Z,996.29
2016-06-12T03:51:43.350Z,996.32
2016-06-12T03:52:43.369Z,996.33
2016-06-12T03:53:43.403Z,996.3
2016-06-12T03:54:43.438Z,996.29
2016-06-12T03:55:43.487Z,996.32
2016-06-12T03:56:43.521Z,996.29
2016-06-12T03:57:43.555Z,996.27
2016-06-12T03:58:43.605Z,996.3
2016-06-12T03:59:43.641Z,996.28
2016-06-12T04:00:43.690Z,996.3
2016-06-12T04:01:43.724Z,996.28
2016-06-12T04:02:43.789Z,996.31
2016-06-12T04:03:43.793Z,996.3
2016-06-12T04:04:43.843Z,996.28
2016-06-12T04:05:44.502Z,996.28
2016-06-12T04:06:44.630Z,996.29
2016-06-12T04:07:43.961Z,996.33
2016-06-12T04:08:43.996Z,996.32
2016-06-12T04:09:44.030Z,996.29
2016-06-12T04:10:44.080Z,996.31
2016-06-12T04:11:44.114Z,996.33
2016-06-12T04:12:44.148Z,996.31
2016-06-12T04:13:44.199Z,996.31
2016-06-12T04:14:44.232Z,996.32
2016-06-12T04:15:44.268Z,996.31
2016-06-12T04:16:44.318Z,996.32
2016-06-12T04:17:44.352Z,996.3
2016-06-12T04:18:44.401Z,996.36
2016-06-12T04:19:44.452Z,996.35
2016-06-12T04:20:44.470Z,996.36
2016-06-12T04:21:44.598Z,996.31
2016-06-12T04:22:44.554Z,996.35
2016-06-12T04:23:44.589Z,996.36
2016-06-12T04:24:44.655Z,996.4
2016-06-12T04:25:44.673Z,996.37
2016-06-12T04:26:44.707Z,996.37
2016-06-12T04:27:44.757Z,996.36
2016-06-12T04:28:44.792Z,996.37
2016-06-12T04:29:44.826Z,996.35
2016-06-12T04:30:44.876Z,996.38
2016-06-12T04:31:44.909Z,996.37
2016-06-12T04:32:44.945Z,996.38
2016-06-12T04:33:44.979Z,996.39
2016-06-12T04:34:45.029Z,996.4
2016-06-12T04:35:45.610Z,996.37
2016-06-12T04:36:45.113Z,996.34
2016-06-12T04:37:45.164Z,996.39
2016-06-12T04:38:45.181Z,996.4
2016-06-12T04:39:45.231Z,996.41
2016-06-12T04:40:45.267Z,996.43
2016-06-12T04:41:45.301Z,996.41
2016-06-12T04:42:45.351Z,996.43
2016-06-12T04:43:45.385Z,996.4
2016-06-12T04:44:45.419Z,996.41
2016-06-12T04:45:45.469Z,996.41
2016-06-12T04:46:45.550Z,996.44
2016-06-12T04:47:45.553Z,996.44
2016-06-12T04:48:45.603Z,996.42
2016-06-12T04:49:45.622Z,996.39
2016-06-12T04:50:45.812Z,996.34
2016-06-12T04:51:45.707Z,996.37
2016-06-12T04:52:45.740Z,996.35
2016-06-12T04:53:45.790Z,996.37
2016-06-12T04:54:45.825Z,996.37
2016-06-12T04:55:45.859Z,996.34
2016-06-12T04:56:45.908Z,996.34
2016-06-12T04:57:45.944Z,996.34
2016-06-12T04:58:45.978Z,996.32
2016-06-12T04:59:46.028Z,996.31
2016-06-12T05:00:46.062Z,996.28
2016-06-12T05:01:46.112Z,996.27
2016-06-12T05:02:46.146Z,996.28
2016-06-12T05:03:46.180Z,996.24
2016-06-12T05:04:46.230Z,996.23
2016-06-12T05:05:46.265Z,996.22
2016-06-12T05:06:46.300Z,996.23
2016-06-12T05:07:46.645Z,996.25
2016-06-12T05:08:46.383Z,996.28
2016-06-12T05:09:46.434Z,996.25
2016-06-12T05:10:46.468Z,996.2
2016-06-12T05:11:46.501Z,996.24
2016-06-12T05:12:46.568Z,996.25
2016-06-12T05:13:46.586Z,996.2
2016-06-12T05:14:46.621Z,996.2
2016-06-12T05:15:46.670Z,996.19
2016-06-12T05:16:46.705Z,996.21
2016-06-12T05:17:46.755Z,996.22
2016-06-12T05:18:46.790Z,996.2
2016-06-12T05:19:46.823Z,996.24
2016-06-12T05:20:46.873Z,996.2
2016-06-12T05:21:46.908Z,996.24
2016-06-12T05:22:46.942Z,996.2
2016-06-12T05:23:47.007Z,996.27
2016-06-12T05:24:47.027Z,996.21
2016-06-12T05:25:47.075Z,996.27
2016-06-12T05:26:47.111Z,996.22
2016-06-12T05:27:47.161Z,996.21
2016-06-12T05:28:47.195Z,996.23
2016-06-12T05:29:47.229Z,996.2
2016-06-12T05:30:47.280Z,996.19
2016-06-12T05:31:47.313Z,996.22
2016-06-12T05:32:47.364Z,996.22
2016-06-12T05:33:47.397Z,996.24
2016-06-12T05:34:47.433Z,996.25
2016-06-12T05:35:47.481Z,996.22
2016-06-12T05:36:48.064Z,996.25
2016-06-12T05:37:47.551Z,996.22
2016-06-12T05:38:47.601Z,996.24
2016-06-12T05:39:47.635Z,996.25
2016-06-12T05:40:47.685Z,996.22
2016-06-12T05:41:47.719Z,996.23
2016-06-12T05:42:47.769Z,996.21
2016-06-12T05:43:47.803Z,996.23
2016-06-12T05:44:47.838Z,996.22
2016-06-12T05:45:47.887Z,996.24
2016-06-12T05:46:47.922Z,996.26
2016-06-12T05:47:47.972Z,996.26
2016-06-12T05:48:48.006Z,996.25
2016-06-12T05:49:48.056Z,996.27
2016-06-12T05:50:48.435Z,996.27
2016-06-12T05:51:48.141Z,996.22
2016-06-12T05:52:48.175Z,996.22
2016-06-12T05:53:48.209Z,996.22
2016-06-12T05:54:48.259Z,996.22
2016-06-12T05:55:48.293Z,996.21
2016-06-12T05:56:48.343Z,996.17
2016-06-12T05:57:48.379Z,996.17
2016-06-12T05:58:48.412Z,996.17
2016-06-12T05:59:48.462Z,996.18
2016-06-12T06:00:48.497Z,996.22
2016-06-12T06:01:48.546Z,996.2
2016-06-12T06:02:48.581Z,996.23
2016-06-12T06:03:48.661Z,996.23
2016-06-12T06:04:48.665Z,996.23
2016-06-12T06:05:48.714Z,996.24
2016-06-12T06:06:48.749Z,996.21
2016-06-12T06:07:48.799Z,996.22
2016-06-12T06:08:48.833Z,996.21
2016-06-12T06:09:48.883Z,996.19
2016-06-12T06:10:48.918Z,996.17
2016-06-12T06:11:48.967Z,996.2
2016-06-12T06:12:49.002Z,996.2
2016-06-12T06:13:49.052Z,996.17
2016-06-12T06:14:49.102Z,996.16
2016-06-12T06:15:49.120Z,996.17
2016-06-12T06:16:49.170Z,996.13
2016-06-12T06:17:49.221Z,996.13
2016-06-12T06:18:49.255Z,996.15
2016-06-12T06:19:49.305Z,996.16
2016-06-12T06:20:49.338Z,996.14
2016-06-12T06:21:49.389Z,996.11
2016-06-12T06:22:49.423Z,996.13
2016-06-12T06:23:49.473Z,996.11
2016-06-12T06:24:49.507Z,996.11
2016-06-12T06:25:49.590Z,996.11
2016-06-12T06:26:49.654Z,996.12
2016-06-12T06:27:49.688Z,996.14
2016-06-12T06:28:49.692Z,996.1
2016-06-12T06:29:49.727Z,996.09
2016-06-12T06:30:49.761Z,996.11
2016-06-12T06:31:49.810Z,996.05
2016-06-12T06:32:49.845Z,996.06
2016-06-12T06:33:49.895Z,996.04
2016-06-12T06:34:49.928Z,996.08
2016-06-12T06:35:49.979Z,996.11
2016-06-12T06:36:50.029Z,996.09
2016-06-12T06:37:50.063Z,996.07
2016-06-12T06:38:50.097Z,996.06
2016-06-12T06:39:50.148Z,996.05
2016-06-12T06:40:50.198Z,996.04
2016-06-12T06:41:50.231Z,996.02
2016-06-12T06:42:50.282Z,996.05
2016-06-12T06:43:50.347Z,996.02
2016-06-12T06:44:50.366Z,996.02
2016-06-12T06:45:50.401Z,996.04
2016-06-12T06:46:50.450Z,996.1
2016-06-12T06:47:50.485Z,996.08
2016-06-12T06:48:50.534Z,996.09
2016-06-12T06:49:50.569Z,996.07
2016-06-12T06:50:50.634Z,996.04
2016-06-12T06:51:50.669Z,996.02
2016-06-12T06:52:50.703Z,996
2016-06-12T06:53:50.753Z,996.01
2016-06-12T06:54:50.787Z,995.98
2016-06-12T06:55:50.837Z,995.96
2016-06-12T06:56:50.872Z,995.95
2016-06-12T06:57:50.938Z,995.96
2016-06-12T06:58:50.971Z,995.95
2016-06-12T06:59:51.006Z,995.91
2016-06-12T07:00:51.056Z,995.95
2016-06-12T07:01:51.090Z,995.91
2016-06-12T07:02:51.140Z,995.92
2016-06-12T07:03:51.174Z,995.93
2016-06-12T07:04:51.255Z,995.93
2016-06-12T07:05:51.274Z,995.93
2016-06-12T07:06:51.309Z,995.91
2016-06-12T07:07:51.359Z,995.86
2016-06-12T07:08:51.393Z,995.85
2016-06-12T07:09:51.442Z,995.86
2016-06-12T07:10:51.493Z,995.84
2016-06-12T07:11:51.527Z,995.88
2016-06-12T07:12:51.562Z,995.83
2016-06-12T07:13:51.611Z,995.79
2016-06-12T07:14:51.661Z,995.8
2016-06-12T07:15:51.696Z,995.81
2016-06-12T07:16:51.746Z,995.81
2016-06-12T07:17:51.780Z,995.79
2016-06-12T07:18:51.830Z,995.8
2016-06-12T07:19:51.864Z,995.81
2016-06-12T07:20:51.914Z,995.82
2016-06-12T07:21:51.948Z,995.8
2016-06-12T07:22:52.015Z,995.84
2016-06-12T07:23:52.033Z,995.8
2016-06-12T07:24:52.082Z,995.8
2016-06-12T07:25:52.117Z,995.79
2016-06-12T07:26:52.182Z,995.77
2016-06-12T07:27:52.200Z,995.76
2016-06-12T07:28:52.251Z,995.79
2016-06-12T07:29:52.317Z,995.79
2016-06-12T07:30:52.335Z,995.71
2016-06-12T07:31:52.385Z,995.79
2016-06-12T07:32:52.420Z,995.75
2016-06-12T07:33:52.469Z,995.77
2016-06-12T07:34:52.504Z,995.76
2016-06-12T07:35:52.554Z,995.79
2016-06-12T07:36:52.588Z,995.78
2016-06-12T07:37:52.639Z,995.8
2016-06-12T07:38:52.689Z,995.77
2016-06-12T07:39:52.723Z,995.71
2016-06-12T07:40:52.773Z,995.71
2016-06-12T07:41:52.807Z,995.72
2016-06-12T07:42:52.857Z,995.73
2016-06-12T07:43:52.907Z,995.74
2016-06-12T07:44:52.941Z,995.71
2016-06-12T07:45:52.991Z,995.69
2016-06-12T07:46:53.041Z,995.66
2016-06-12T07:47:53.075Z,995.64
2016-06-12T07:48:53.109Z,995.67
2016-06-12T07:49:53.159Z,995.66
2016-06-12T07:50:53.209Z,995.67
2016-06-12T07:51:54.009Z,995.64
2016-06-12T07:52:53.294Z,995.6
2016-06-12T07:53:53.344Z,995.59
2016-06-12T07:54:53.409Z,995.56
2016-06-12T07:55:53.428Z,995.54
2016-06-12T07:56:53.462Z,995.54
2016-06-12T07:57:53.512Z,995.55
2016-06-12T07:58:53.562Z,995.55
2016-06-12T07:59:53.596Z,995.53
2016-06-12T08:00:53.646Z,995.48
2016-06-12T08:01:53.681Z,995.49
2016-06-12T08:02:53.746Z,995.52
2016-06-12T08:03:53.781Z,995.5
2016-06-12T08:04:53.814Z,995.5
2016-06-12T08:05:53.864Z,995.49
2016-06-12T08:06:53.915Z,995.46
2016-06-12T08:07:53.964Z,995.51
2016-06-12T08:08:53.999Z,995.5
2016-06-12T08:09:54.049Z,995.48
2016-06-12T08:10:54.083Z,995.52
2016-06-12T08:11:54.133Z,995.47
2016-06-12T08:12:54.183Z,995.45
2016-06-12T08:13:54.217Z,995.45
2016-06-12T08:14:54.267Z,995.45
2016-06-12T08:15:54.317Z,995.45
2016-06-12T08:16:54.351Z,995.45
2016-06-12T08:17:54.401Z,995.41
2016-06-12T08:18:54.452Z,995.42
2016-06-12T08:19:54.485Z,995.44
2016-06-12T08:20:54.536Z,995.4
2016-06-12T08:21:54.727Z,995.4
2016-06-12T08:22:54.636Z,995.35
2016-06-12T08:23:54.686Z,995.35
2016-06-12T08:24:54.720Z,995.37
2016-06-12T08:25:54.771Z,995.39
2016-06-12T08:26:54.804Z,995.36
2016-06-12T08:27:54.854Z,995.37
2016-06-12T08:28:54.905Z,995.37
2016-06-12T08:29:54.938Z,995.4
2016-06-12T08:30:55.005Z,995.39
2016-06-12T08:31:55.038Z,995.37
2016-06-12T08:32:55.072Z,995.32
2016-06-12T08:33:55.123Z,995.34
2016-06-12T08:34:55.172Z,995.36
2016-06-12T08:35:55.223Z,995.36
2016-06-12T08:36:55.257Z,995.36
2016-06-12T08:37:55.307Z,995.31
2016-06-12T08:38:55.357Z,995.36
2016-06-12T08:39:55.391Z,995.35
2016-06-12T08:40:55.441Z,995.34
2016-06-12T08:41:55.508Z,995.34
2016-06-12T08:42:55.542Z,995.3
2016-06-12T08:43:55.591Z,995.35
2016-06-12T08:44:55.626Z,995.35
2016-06-12T08:45:55.675Z,995.32
2016-06-12T08:46:55.725Z,995.31
2016-06-12T08:47:55.760Z,995.31
2016-06-12T08:48:55.810Z,995.31
2016-06-12T08:49:55.860Z,995.3
2016-06-12T08:50:55.910Z,995.28
2016-06-12T08:51:56.116Z,995.32
2016-06-12T08:52:56.056Z,995.29
2016-06-12T08:53:56.045Z,995.26
2016-06-12T08:54:56.094Z,995.27
2016-06-12T08:55:56.143Z,995.28
2016-06-12T08:56:56.179Z,995.25
2016-06-12T08:57:56.228Z,995.25
2016-06-12T08:58:56.278Z,995.23
2016-06-12T08:59:56.327Z,995.24
2016-06-12T09:00:56.362Z,995.22
2016-06-12T09:01:56.412Z,995.21
2016-06-12T09:02:56.462Z,995.2
2016-06-12T09:03:56.496Z,995.21
2016-06-12T09:04:56.546Z,995.21
2016-06-12T09:05:56.596Z,995.2
2016-06-12T09:06:57.115Z,995.17
2016-06-12T09:07:56.681Z,995.2
2016-06-12T09:08:56.746Z,995.21
2016-06-12T09:09:56.781Z,995.19
2016-06-12T09:10:56.831Z,995.18
2016-06-12T09:11:56.880Z,995.15
2016-06-12T09:12:56.914Z,995.17
2016-06-12T09:13:56.966Z,995.17
2016-06-12T09:14:57.056Z,995.18
2016-06-12T09:15:57.147Z,995.14
2016-06-12T09:16:57.222Z,995.12
2016-06-12T09:17:57.313Z,995.09
2016-06-12T09:18:57.403Z,995.11
2016-06-12T09:19:57.468Z,995.12
2016-06-12T09:20:57.516Z,995.11
2016-06-12T09:21:57.581Z,995.13
2016-06-12T09:22:57.646Z,995.15
2016-06-12T09:23:57.709Z,995.13
2016-06-12T09:24:57.796Z,995.15
2016-06-12T09:25:57.804Z,995.18
2016-06-12T09:26:57.858Z,995.18
2016-06-12T09:27:57.914Z,995.2
2016-06-12T09:28:57.969Z,995.16
2016-06-12T09:29:58.037Z,995.16
2016-06-12T09:30:58.056Z,995.13
2016-06-12T09:31:58.109Z,995.11
2016-06-12T09:32:58.160Z,995.08
2016-06-12T09:33:58.196Z,995.12
2016-06-12T09:34:58.263Z,995.08
2016-06-12T09:35:58.314Z,995.1
2016-06-12T09:36:58.349Z,995.09
2016-06-12T09:37:58.383Z,995.06
2016-06-12T09:38:58.435Z,995.06
2016-06-12T09:39:58.485Z,995.08
2016-06-12T09:40:58.535Z,995.07
2016-06-12T09:41:58.570Z,995.05
2016-06-12T09:42:58.651Z,995.07
2016-06-12T09:43:58.671Z,995.06
2016-06-12T09:44:58.721Z,995.04
2016-06-12T09:45:58.755Z,995.04
2016-06-12T09:46:58.805Z,995.03
2016-06-12T09:47:58.855Z,995
2016-06-12T09:48:58.905Z,995.01
2016-06-12T09:49:58.954Z,995.05
2016-06-12T09:50:59.005Z,995.01
2016-06-12T09:51:59.039Z,994.99
2016-06-12T09:52:59.088Z,994.96
2016-06-12T09:53:59.171Z,994.97
2016-06-12T09:54:59.174Z,994.99
2016-06-12T09:55:59.222Z,994.98
2016-06-12T09:56:59.272Z,994.96
2016-06-12T09:57:59.323Z,994.93
2016-06-12T09:58:59.373Z,994.97
2016-06-12T09:59:59.407Z,994.91
2016-06-12T10:00:59.457Z,994.91
2016-06-12T10:01:59.507Z,994.91
2016-06-12T10:02:59.557Z,994.91
2016-06-12T10:03:59.607Z,994.87
2016-06-12T10:04:59.657Z,994.88
2016-06-12T10:05:59.692Z,994.9
2016-06-12T10:06:59.741Z,994.82
2016-06-12T10:07:59.791Z,994.88
2016-06-12T10:08:59.842Z,994.84
2016-06-12T10:09:59.876Z,994.85
2016-06-12T10:10:59.925Z,994.85
2016-06-12T10:11:59.976Z,994.84
2016-06-12T10:13:00.025Z,994.83
2016-06-12T10:14:00.075Z,994.82
2016-06-12T10:15:00.110Z,994.79
2016-06-12T10:16:00.159Z,994.78
2016-06-12T10:17:00.209Z,994.77
2016-06-12T10:18:00.259Z,994.81
2016-06-12T10:19:00.326Z,994.75
2016-06-12T10:20:00.343Z,994.76
2016-06-12T10:21:00.440Z,994.73
2016-06-12T10:22:00.444Z,994.75
2016-06-12T10:23:00.494Z,994.74
2016-06-12T10:24:00.544Z,994.78
2016-06-12T10:25:00.578Z,994.76
2016-06-12T10:26:00.659Z,994.77
2016-06-12T10:27:00.678Z,994.73
2016-06-12T10:28:00.712Z,994.75
2016-06-12T10:29:00.762Z,994.75
2016-06-12T10:30:00.812Z,994.78
2016-06-12T10:31:00.863Z,994.76
2016-06-12T10:32:00.897Z,994.77
2016-06-12T10:33:00.947Z,994.78
2016-06-12T10:34:00.996Z,994.74
2016-06-12T10:35:01.031Z,994.75
2016-06-12T10:36:01.081Z,994.84
2016-06-12T10:37:01.131Z,994.81
2016-06-12T10:38:01.181Z,994.73
2016-06-12T10:39:01.215Z,994.95
2016-06-12T10:40:01.265Z,995.07
2016-06-12T10:41:01.315Z,994.93
2016-06-12T10:42:01.364Z,994.75
2016-06-12T10:43:01.414Z,994.71
2016-06-12T10:44:01.480Z,994.69
2016-06-12T10:45:01.498Z,994.68
2016-06-12T10:46:01.548Z,994.63
2016-06-12T10:47:01.598Z,994.64
2016-06-12T10:48:01.649Z,994.64
2016-06-12T10:49:01.699Z,994.6
2016-06-12T10:50:01.732Z,994.61
2016-06-12T10:51:01.830Z,994.63
2016-06-12T10:52:01.833Z,994.71
2016-06-12T10:53:02.772Z,994.7
2016-06-12T10:54:01.933Z,994.74
2016-06-12T10:55:01.983Z,994.75
2016-06-12T10:56:02.032Z,994.74
2016-06-12T10:57:02.082Z,994.77
2016-06-12T10:58:02.133Z,994.75
2016-06-12T10:59:02.182Z,994.77
2016-06-12T11:00:02.216Z,994.73
2016-06-12T11:01:02.266Z,994.78
2016-06-12T11:02:02.317Z,994.89
2016-06-12T11:03:02.367Z,994.86
2016-06-12T11:04:02.416Z,994.84
2016-06-12T11:05:02.467Z,994.83
2016-06-12T11:06:02.517Z,994.89
2016-06-12T11:07:02.565Z,994.79
2016-06-12T11:08:03.023Z,994.76
2016-06-12T11:09:02.744Z,994.79
2016-06-12T11:10:02.732Z,994.75
2016-06-12T11:11:02.782Z,994.82
2016-06-12T11:12:02.910Z,994.82
2016-06-12T11:13:02.881Z,994.79
2016-06-12T11:14:02.948Z,994.83
2016-06-12T11:15:02.998Z,994.85
2016-06-12T11:16:03.126Z,994.84
2016-06-12T11:17:03.094Z,994.41
2016-06-12T11:18:03.160Z,994.41
2016-06-12T11:19:03.228Z,994.44
2016-06-12T11:20:03.278Z,994.74
2016-06-12T11:21:03.438Z,994.53
2016-06-12T11:22:03.394Z,994.29
2016-06-12T11:23:03.834Z,994.28
2016-06-12T11:24:03.493Z,994.24
2016-06-12T11:25:03.543Z,994.22
2016-06-12T11:26:03.593Z,994.26
2016-06-12T11:27:03.659Z,994.21
2016-06-12T11:28:03.709Z,994.22
2016-06-12T11:29:03.791Z,994.19
2016-06-12T11:30:03.824Z,994.18
2016-06-12T11:31:03.858Z,994.08
2016-06-12T11:32:03.909Z,994.14
2016-06-12T11:33:03.975Z,994.13
2016-06-12T11:34:04.009Z,994.2
2016-06-12T11:35:04.074Z,994.15
2016-06-12T11:36:04.124Z,994.13
2016-06-12T11:37:04.191Z,994.15
2016-06-12T11:38:04.225Z,994.09
2016-06-12T11:39:04.275Z,994.07
2016-06-12T11:40:04.325Z,994.05
2016-06-12T11:41:04.374Z,994.01
2016-06-12T11:42:04.423Z,994.03
2016-06-12T11:43:04.473Z,993.99
2016-06-12T11:44:04.523Z,994.02
2016-06-12T11:45:04.574Z,994.26
2016-06-12T11:46:04.624Z,994.48
2016-06-12T11:47:04.658Z,994.11
2016-06-12T11:48:04.724Z,993.98
2016-06-12T11:49:04.758Z,993.99
2016-06-12T11:50:04.808Z,993.99
2016-06-12T11:51:04.858Z,993.98
2016-06-12T11:52:04.908Z,993.98
2016-06-12T11:53:05.005Z,993.94
2016-06-12T11:54:05.007Z,993.93
2016-06-12T11:55:05.058Z,993.93
2016-06-12T11:56:05.108Z,993.92
2016-06-12T11:57:05.157Z,993.88
2016-06-12T11:58:05.207Z,993.91
2016-06-12T11:59:05.258Z,993.85
2016-06-12T12:00:05.292Z,993.88
2016-06-12T12:01:05.342Z,993.85
2016-06-12T12:02:05.407Z,993.88
2016-06-12T12:03:05.442Z,993.84
2016-06-12T12:04:05.491Z,993.84
2016-06-12T12:05:05.541Z,993.83
2016-06-12T12:06:05.576Z,993.83
2016-06-12T12:07:05.625Z,993.8
2016-06-12T12:08:05.816Z,993.86
2016-06-12T12:09:05.725Z,993.91
2016-06-12T12:10:05.776Z,993.95
2016-06-12T12:11:05.809Z,993.91
2016-06-12T12:12:05.859Z,993.95
2016-06-12T12:13:05.910Z,993.91
2016-06-12T12:14:05.991Z,993.9
2016-06-12T12:15:05.994Z,993.95
2016-06-12T12:16:06.045Z,993.94
2016-06-12T12:17:06.094Z,993.94
2016-06-12T12:18:06.128Z,993.96
2016-06-12T12:19:06.179Z,993.94
2016-06-12T12:20:06.229Z,993.95
2016-06-12T12:21:06.310Z,993.94
2016-06-12T12:22:06.313Z,993.93
2016-06-12T12:23:06.363Z,993.93
2016-06-12T12:24:06.396Z,993.91
2016-06-12T12:25:06.447Z,993.89
2016-06-12T12:26:06.497Z,993.9
2016-06-12T12:27:06.530Z,993.89
2016-06-12T12:28:06.581Z,993.84
2016-06-12T12:29:06.615Z,993.92
2016-06-12T12:30:06.665Z,993.9
2016-06-12T12:31:06.716Z,993.92